ADDS TAF Board (Experimental) INFO Settings
IDs: Format: Expanded Condensed

KLGA - New York/La Guardia, NY, US

Issued at 1948 UTC 25 May 2015
Updated at: 2133 UTC 25 May 2015
Time2051Z 25/22Z 25/23Z 26/00Z 26/01Z 26/02Z 26/03Z 26/04Z 26/05Z 26/06Z 26/07Z 26/08Z 26/09Z 26/10Z
Type OBS PRVL PRVL PRVL PRVL PRVL PRVL PRVL PRVL PRVL PRVL PRVL PRVL PRVL
VIS 10 >6 >6 >6 >6 >6 >6 >6 >6 >6 >6 >6 >6 >6
CIG 250 -- -- -- -- -- -- -- -- -- -- -- -- --
Cover BKN SCT SCT FEW FEW FEW FEW FEW FEW FEW FEW FEW FEW FEW
FltCat VFR VFR VFR VFR VFR VFR VFR VFR VFR VFR VFR VFR VFR VFR
WX -- -- -- -- -- -- -- -- -- -- -- -- -- --
WDir 170 180 180 190 190 210 210 210 210 210 210 210 210 210
WSpd 12 19 19 14 14 9 9 9 9 9 9 9 9 9
WGst -- 26 26 20 20 -- -- -- -- -- -- -- -- --
R04/22
XWnd -8 -10 -10 -5 -5 -0 -0 -0 -0 -0 -0 -0 -0 -0
XGst -- -14 -14 -7 -7 -- -- -- -- -- -- -- -- --
HWnd -9 -16 -16 -13 -13 -9 -9 -9 -9 -9 -9 -9 -9 -9
HGst -- -22 -22 -19 -19 -- -- -- -- -- -- -- -- --
R13/31
XWnd -9 -16 -16 -13 -13 -9 -9 -9 -9 -9 -9 -9 -9 -9
XGst -- -22 -22 -19 -19 -- -- -- -- -- -- -- -- --
HWnd 8 10 10 5 5 0 0 0 0 0 0 0 0 0
HGst -- 14 14 7 7 -- -- -- -- -- -- -- -- --

NOTE: TEMPO conditions in [brackets]. Keep in mind TEMPO conditions might be better (lower impact) than prevailing conditions.

Raw TAF
KLGA 251948Z 2520/2618 18019G26KT P6SM SCT250
  FM260000 19014G20KT P6SM FEW250
  FM260200 21009KT P6SM FEW150 FEW200


Raw METAR
KLGA 252051Z 17012KT 10SM FEW060 BKN250 28/13 A3015 RMK AO2 SLP209 T02780133 56018
KLGA 251951Z 17015KT 10SM FEW060 SCT180 SCT250 28/13 A3016 RMK AO2 SLP214 T02830133
KLGA 251851Z 16016G22KT 10SM FEW060 SCT180 SCT250 27/14 A3018 RMK AO2 SLP220 T02720139

METAR Board
Radar Display
Forecast Discussion

TAF Board Legend

Potential Impact
Threat None Slight Moderate High
Visibility (sm) ≥5.1 5.1>X≥3 3>X≥1 <1
Ceiling (100 ft) ≥30.1 30.1>X≥10 10>X≥5 <5
Wind Speed (kt) <10 10≤X<20 20≤X<30 ≥30
Wind Gust (kt) <15 15≤X<25 25≤X<35 ≥35
Weather No Wx Reported VCTS,-TS,-FZRA,SN TS,FZRA +TS,+FZRA,+SN